Time;durP1;ratioP1;P1;durP2;ratioP2;P2;SDS_P1;SDS_P2;PMS_P1;PMS_P2;Temp;Humidity;BMP_temperature;BMP_pressure;BME280_temperature;BME280_humidity;BME280_pressure;Samples;Min_cycle;Max_cycle;Signal;HPM_P1;HPM_P2
2023/08/17 00:01:44;;;;;;;11.60;3.53;;;26.90;99.90;;;;;;5004824;23;20513;-53
2023/08/17 00:04:10;;;;;;;12.68;3.53;;;26.90;99.90;;;;;;4993033;28;20106;-53
2023/08/17 00:06:36;;;;;;;13.40;3.92;;;26.90;99.90;;;;;;4992745;28;20382;-53
2023/08/17 00:09:03;;;;;;;11.30;3.05;;;26.90;99.90;;;;;;4992898;28;20088;-52
2023/08/17 00:11:29;;;;;;;9.63;2.83;;;27.00;99.90;;;;;;4992931;28;20113;-53
2023/08/17 00:13:55;;;;;;;11.50;3.53;;;26.90;99.90;;;;;;4992597;28;20158;-53
2023/08/17 00:16:22;;;;;;;7.72;2.92;;;26.90;99.90;;;;;;4992823;28;20026;-52
2023/08/17 00:18:48;;;;;;;13.32;3.55;;;26.90;99.90;;;;;;4992675;28;20023;-53
2023/08/17 00:21:14;;;;;;;9.07;3.15;;;27.00;99.90;;;;;;4992512;28;20057;-52
2023/08/17 00:23:39;;;;;;;11.77;4.10;;;26.90;99.90;;;;;;4992444;28;20034;-52
2023/08/17 00:26:06;;;;;;;16.65;4.03;;;27.00;99.90;;;;;;4991134;28;20026;-52
2023/08/17 00:28:32;;;;;;;15.68;3.88;;;26.90;99.90;;;;;;4992355;28;20022;-52
2023/08/17 00:30:57;;;;;;;15.65;4.13;;;27.00;99.90;;;;;;4992543;28;20351;-52
2023/08/17 00:33:23;;;;;;;7.63;3.67;;;26.90;99.90;;;;;;4992429;28;20030;-52
2023/08/17 00:35:49;;;;;;;9.23;3.30;;;27.00;99.90;;;;;;4991220;28;20038;-52
2023/08/17 00:38:15;;;;;;;9.02;3.00;;;26.90;99.90;;;;;;4992420;28;20097;-52
2023/08/17 00:40:40;;;;;;;10.73;3.17;;;27.00;99.90;;;;;;4990915;28;20434;-52
2023/08/17 00:43:07;;;;;;;8.93;3.35;;;26.90;99.90;;;;;;4991347;28;20077;-52
2023/08/17 00:45:33;;;;;;;7.25;2.75;;;26.90;99.90;;;;;;4994586;28;20022;-52
2023/08/17 00:47:59;;;;;;;7.80;2.47;;;26.90;99.90;;;;;;4994876;28;20430;-52
2023/08/17 00:50:26;;;;;;;7.50;2.75;;;26.90;99.90;;;;;;4993838;28;20085;-52
2023/08/17 00:52:53;;;;;;;7.60;2.90;;;26.90;99.90;;;;;;4996316;28;20037;-52
2023/08/17 00:55:19;;;;;;;10.18;2.97;;;26.90;99.90;;;;;;4995228;28;20026;-52
2023/08/17 00:57:45;;;;;;;7.77;3.17;;;26.90;99.90;;;;;;4996156;28;20034;-52
2023/08/17 01:02:45;;;;;;;8.77;4.00;;;26.90;99.90;;;;;;4973683;28;20440;-54
2023/08/17 01:05:10;;;;;;;10.88;3.72;;;26.90;99.90;;;;;;4974857;28;20034;-54
2023/08/17 01:07:37;;;;;;;8.07;3.03;;;26.90;99.90;;;;;;4976065;28;20030;-54
2023/08/17 01:10:05;;;;;;;9.30;2.80;;;26.80;99.90;;;;;;4976145;28;20122;-55
2023/08/17 01:12:36;;;;;;;7.97;3.40;;;26.80;99.90;;;;;;4976193;28;20448;-54
2023/08/17 01:15:15;;;;;;;10.52;2.92;;;26.80;99.90;;;;;;4976124;28;20482;-55
2023/08/17 01:18:12;;;;;;;9.18;2.50;;;26.80;99.90;;;;;;4976050;28;20026;-55
2023/08/17 01:20:38;;;;;;;10.95;2.90;;;26.80;99.90;;;;;;4975805;28;20045;-55
2023/08/17 01:23:07;;;;;;;6.80;2.53;;;26.80;99.90;;;;;;4990740;28;20122;-55
2023/08/17 01:25:36;;;;;;;9.43;2.42;;;26.80;99.90;;;;;;4975890;28;20494;-56
2023/08/17 01:28:03;;;;;;;10.25;3.17;;;26.80;99.90;;;;;;4975852;28;20029;-56
2023/08/17 01:30:33;;;;;;;8.95;3.20;;;26.80;99.90;;;;;;4975893;28;20408;-56
2023/08/17 01:33:33;;;;;;;8.88;2.85;;;26.80;99.90;;;;;;4975600;28;20109;-56
2023/08/17 01:36:02;;;;;;;6.72;2.60;;;26.80;99.90;;;;;;4974371;28;20039;-56
2023/08/17 01:38:30;;;;;;;9.43;2.85;;;26.80;99.90;;;;;;4975585;28;20041;-56
2023/08/17 01:40:58;;;;;;;6.93;2.30;;;26.70;99.90;;;;;;4975793;28;20109;-56
2023/08/17 01:43:24;;;;;;;9.38;3.08;;;26.70;99.90;;;;;;4975802;28;20019;-56
2023/08/17 01:45:50;;;;;;;9.82;2.72;;;26.70;99.90;;;;;;4975560;28;20026;-55
2023/08/17 01:48:16;;;;;;;12.05;3.35;;;26.70;99.90;;;;;;4974259;28;20033;-56
2023/08/17 01:50:41;;;;;;;9.38;2.83;;;26.70;99.90;;;;;;4975314;28;20423;-56
2023/08/17 01:53:09;;;;;;;6.40;2.58;;;26.70;99.90;;;;;;4975422;28;20440;-56
2023/08/17 01:55:35;;;;;;;8.23;3.33;;;26.70;99.90;;;;;;4989613;28;20065;-55
2023/08/17 01:58:01;;;;;;;11.95;3.10;;;26.70;99.90;;;;;;4957999;28;20058;-56
2023/08/17 02:00:27;;;;;;;14.70;3.92;;;26.70;99.90;;;;;;4975907;28;20066;-56
2023/08/17 02:02:53;;;;;;;14.30;5.40;;;26.80;99.90;;;;;;4975501;28;20092;-56
2023/08/17 02:05:18;;;;;;;9.70;3.92;;;26.80;99.90;;;;;;4975235;28;20089;-56
2023/08/17 02:07:44;;;;;;;13.55;4.03;;;26.80;99.90;;;;;;4990041;28;20113;-55
2023/08/17 02:10:10;;;;;;;11.57;3.70;;;26.80;99.90;;;;;;4975196;28;20494;-55
2023/08/17 02:12:36;;;;;;;10.20;3.40;;;26.80;99.90;;;;;;4975062;28;20046;-56
2023/08/17 02:15:01;;;;;;;13.05;4.07;;;26.90;99.90;;;;;;4974956;28;20042;-55
2023/08/17 02:17:27;;;;;;;8.32;3.42;;;26.80;99.90;;;;;;4975132;28;20034;-54
2023/08/17 02:19:53;;;;;;;10.07;3.65;;;26.90;99.90;;;;;;4974964;28;20173;-54
2023/08/17 02:22:19;;;;;;;11.93;3.42;;;26.80;99.90;;;;;;4973792;28;20118;-55
2023/08/17 02:24:46;;;;;;;14.70;4.28;;;26.80;99.90;;;;;;4974765;28;20387;-55
2023/08/17 02:27:12;;;;;;;9.10;4.05;;;26.80;99.90;;;;;;4974694;28;20030;-54
2023/08/17 02:29:38;;;;;;;10.13;4.13;;;26.90;99.90;;;;;;4974905;28;20434;-55
2023/08/17 02:32:04;;;;;;;9.70;3.03;;;26.80;99.90;;;;;;4974969;28;20015;-54
2023/08/17 02:34:30;;;;;;;11.38;3.38;;;26.80;99.90;;;;;;4974566;28;20077;-55
2023/08/17 02:36:56;;;;;;;9.85;3.50;;;26.80;99.90;;;;;;4974825;28;20023;-55
2023/08/17 02:39:22;;;;;;;7.63;3.05;;;26.80;99.90;;;;;;4974510;28;20031;-54
2023/08/17 02:41:49;;;;;;;9.27;3.33;;;26.80;99.90;;;;;;4974467;28;20106;-55
2023/08/17 02:44:15;;;;;;;9.90;3.83;;;26.90;99.90;;;;;;4974388;28;20069;-54
2023/08/17 02:46:41;;;;;;;11.35;3.47;;;26.80;99.90;;;;;;4974409;28;20050;-54
2023/08/17 02:49:06;;;;;;;6.97;2.90;;;26.80;99.90;;;;;;4974421;28;20058;-55
2023/08/17 02:51:32;;;;;;;8.40;3.38;;;26.90;99.90;;;;;;4974407;28;20030;-54
2023/08/17 02:53:58;;;;;;;13.38;4.68;;;26.80;99.90;;;;;;4974680;28;20026;-54
2023/08/17 02:56:24;;;;;;;5.28;3.10;;;26.80;99.90;;;;;;4974257;28;20019;-55
2023/08/17 02:58:49;;;;;;;12.65;3.13;;;26.80;99.90;;;;;;4974233;28;20031;-54
2023/08/17 03:01:15;;;;;;;7.50;3.65;;;26.80;99.90;;;;;;4992728;23;20061;-51
2023/08/17 03:03:41;;;;;;;10.38;3.22;;;26.80;99.90;;;;;;4993797;28;20115;-51
2023/08/17 03:06:08;;;;;;;7.45;3.20;;;26.80;99.90;;;;;;4992906;28;20084;-52
2023/08/17 03:08:33;;;;;;;11.63;3.45;;;26.80;99.90;;;;;;4993675;28;20023;-52
2023/08/17 03:10:59;;;;;;;10.43;3.28;;;26.80;99.90;;;;;;4993949;28;20030;-52
2023/08/17 03:13:25;;;;;;;13.05;3.30;;;26.70;99.90;;;;;;4993798;28;20498;-51
2023/08/17 03:15:51;;;;;;;11.35;4.03;;;26.70;99.90;;;;;;4993617;28;20034;-52
2023/08/17 03:18:16;;;;;;;8.48;3.20;;;26.70;99.90;;;;;;4993646;28;20030;-52
2023/08/17 03:20:45;;;;;;;5.68;2.90;;;26.70;99.90;;;;;;4993584;28;20081;-52
2023/08/17 03:23:10;;;;;;;9.45;3.33;;;26.70;99.90;;;;;;4993477;28;20048;-52
2023/08/17 03:25:37;;;;;;;10.77;3.55;;;26.60;99.90;;;;;;4992160;28;20467;-52
2023/08/17 03:28:03;;;;;;;19.95;4.68;;;26.60;99.90;;;;;;4993416;28;20525;-54
2023/08/17 03:30:29;;;;;;;9.27;3.60;;;26.60;99.90;;;;;;4993674;28;20077;-54
2023/08/17 03:32:55;;;;;;;11.13;3.50;;;26.60;99.90;;;;;;4993341;28;20030;-51
2023/08/17 03:35:20;;;;;;;10.52;3.28;;;26.60;99.90;;;;;;4993318;28;20109;-52
2023/08/17 03:37:46;;;;;;;9.45;3.67;;;26.60;99.90;;;;;;4993289;28;20026;-52
2023/08/17 03:40:12;;;;;;;9.82;3.22;;;26.60;99.90;;;;;;4991785;28;20056;-52
2023/08/17 03:42:38;;;;;;;16.85;3.78;;;26.60;99.90;;;;;;4993160;28;20534;-52
2023/08/17 03:45:04;;;;;;;14.45;3.50;;;26.60;99.90;;;;;;4986467;28;20053;-51
2023/08/17 03:47:30;;;;;;;12.88;3.40;;;26.60;99.90;;;;;;4990992;28;20113;-52
2023/08/17 03:49:56;;;;;;;12.13;3.80;;;26.50;99.90;;;;;;4991395;28;20109;-52
2023/08/17 03:52:22;;;;;;;15.77;4.45;;;26.50;99.90;;;;;;4992538;28;20026;-51
2023/08/17 03:54:47;;;;;;;16.05;4.88;;;26.50;99.90;;;;;;4992443;28;20467;-52
2023/08/17 03:57:13;;;;;;;11.65;3.83;;;26.50;99.90;;;;;;4992670;28;20104;-52
2023/08/17 03:59:39;;;;;;;13.23;4.30;;;26.50;99.90;;;;;;4992336;28;20431;-52
2023/08/17 04:02:05;;;;;;;8.07;3.33;;;26.50;99.90;;;;;;4991662;28;20073;-52
2023/08/17 04:04:31;;;;;;;11.30;3.75;;;26.50;99.90;;;;;;4992557;28;20491;-52
2023/08/17 04:06:57;;;;;;;12.07;4.03;;;26.50;99.90;;;;;;5007559;28;20030;-52
2023/08/17 04:09:23;;;;;;;15.48;4.22;;;26.50;99.90;;;;;;4979331;28;20509;-51
2023/08/17 04:11:49;;;;;;;8.93;3.67;;;26.50;99.90;;;;;;5007629;28;20041;-51
2023/08/17 04:14:15;;;;;;;11.73;3.92;;;26.50;99.90;;;;;;4990625;28;20022;-51
2023/08/17 04:16:40;;;;;;;7.10;3.30;;;26.50;99.90;;;;;;4991423;28;20023;-51
2023/08/17 04:19:06;;;;;;;10.80;4.13;;;26.50;99.90;;;;;;4992440;28;20029;-51
2023/08/17 04:21:32;;;;;;;17.38;4.85;;;26.50;99.90;;;;;;4991935;28;20034;-52
2023/08/17 04:23:58;;;;;;;11.70;3.78;;;26.50;99.90;;;;;;4992553;28;20089;-52
2023/08/17 04:26:24;;;;;;;7.47;3.38;;;26.40;99.90;;;;;;4992399;28;20058;-52
2023/08/17 04:28:50;;;;;;;10.43;3.65;;;26.40;99.90;;;;;;4992489;28;20524;-52
2023/08/17 04:31:17;;;;;;;11.18;4.07;;;26.30;99.90;;;;;;4992576;28;20105;-52
2023/08/17 04:33:43;;;;;;;8.50;3.88;;;26.30;99.90;;;;;;4985270;28;20030;-51
2023/08/17 04:36:08;;;;;;;10.52;3.80;;;26.30;99.90;;;;;;4980674;28;20499;-52
2023/08/17 04:38:34;;;;;;;14.75;4.10;;;26.20;99.90;;;;;;4981894;28;20049;-52
2023/08/17 04:41:00;;;;;;;14.45;4.35;;;26.20;99.90;;;;;;4992100;28;20113;-52
2023/08/17 04:43:26;;;;;;;14.43;4.55;;;26.20;99.90;;;;;;4992018;28;20195;-52
2023/08/17 04:45:51;;;;;;;12.50;4.13;;;26.20;99.90;;;;;;4976539;28;20026;-53
2023/08/17 04:48:17;;;;;;;15.75;5.35;;;26.20;99.90;;;;;;4972736;28;20031;-53
2023/08/17 04:50:43;;;;;;;14.52;4.70;;;26.10;99.90;;;;;;4972848;28;20106;-52
2023/08/17 04:53:09;;;;;;;17.42;5.50;;;26.10;99.90;;;;;;4971801;28;20054;-53
2023/08/17 04:55:34;;;;;;;18.13;4.60;;;26.10;99.90;;;;;;4983181;28;20014;-52
2023/08/17 04:58:00;;;;;;;11.00;4.63;;;26.00;99.90;;;;;;4980250;28;20026;-52
2023/08/17 05:00:28;;;;;;;18.27;5.07;;;26.00;99.90;;;;;;4984697;28;20117;-51
2023/08/17 05:02:57;;;;;;;13.20;4.95;;;26.00;99.90;;;;;;4990668;28;20027;-51
2023/08/17 05:05:23;;;;;;;11.07;4.18;;;26.00;99.90;;;;;;4990723;28;20042;-52
2023/08/17 05:07:49;;;;;;;16.70;4.85;;;26.00;99.90;;;;;;4992152;28;20348;-51
2023/08/17 05:10:15;;;;;;;12.93;4.28;;;25.90;99.90;;;;;;4991256;28;20018;-51
2023/08/17 05:12:41;;;;;;;13.23;5.00;;;25.90;99.90;;;;;;4992235;28;20037;-51
2023/08/17 05:15:07;;;;;;;16.67;5.47;;;25.90;99.90;;;;;;4992283;28;20486;-51
2023/08/17 05:17:33;;;;;;;14.48;5.20;;;25.90;99.90;;;;;;4992285;28;20109;-51
2023/08/17 05:19:58;;;;;;;15.50;5.20;;;25.90;99.90;;;;;;4991914;28;20102;-51
2023/08/17 05:22:24;;;;;;;16.25;4.65;;;25.90;99.90;;;;;;4991834;28;20062;-51
2023/08/17 05:24:50;;;;;;;14.63;4.88;;;25.90;99.90;;;;;;4991861;28;20022;-51
2023/08/17 05:27:15;;;;;;;23.45;4.97;;;25.90;99.90;;;;;;4991914;28;20029;-51
2023/08/17 05:29:41;;;;;;;12.05;4.90;;;25.90;99.90;;;;;;4993097;28;20022;-52
2023/08/17 05:32:07;;;;;;;15.20;4.28;;;25.90;99.90;;;;;;4995576;28;20100;-53
2023/08/17 05:34:33;;;;;;;13.45;3.90;;;25.80;99.90;;;;;;5010413;28;20443;-52
2023/08/17 05:36:58;;;;;;;9.10;3.83;;;25.80;99.90;;;;;;4995455;28;20042;-52
2023/08/17 05:39:24;;;;;;;14.95;4.25;;;25.80;99.90;;;;;;4995356;28;20036;-52
2023/08/17 05:41:50;;;;;;;9.52;4.47;;;25.80;99.90;;;;;;4995288;28;20062;-53
2023/08/17 05:44:17;;;;;;;14.30;4.43;;;25.80;99.90;;;;;;4995146;28;20080;-52
2023/08/17 05:46:43;;;;;;;11.88;4.05;;;25.80;99.90;;;;;;4995139;28;20475;-52
2023/08/17 05:49:08;;;;;;;14.38;4.70;;;25.80;99.90;;;;;;4995359;28;20084;-52
2023/08/17 05:51:34;;;;;;;12.90;4.32;;;25.70;99.90;;;;;;4995546;28;20081;-52
2023/08/17 05:54:00;;;;;;;13.38;4.75;;;25.60;99.90;;;;;;4995043;28;20026;-52
2023/08/17 05:56:26;;;;;;;15.65;4.85;;;25.60;99.90;;;;;;4995195;28;20027;-53
2023/08/17 05:58:51;;;;;;;11.70;4.60;;;25.60;99.90;;;;;;4994893;28;20030;-52
2023/08/17 06:01:17;;;;;;;13.88;4.57;;;25.60;99.90;;;;;;4994603;28;20383;-52
2023/08/17 06:03:43;;;;;;;18.92;4.90;;;25.50;99.90;;;;;;4993736;28;20056;-52
2023/08/17 06:06:09;;;;;;;14.73;4.47;;;25.50;99.90;;;;;;5010145;28;20034;-52
2023/08/17 06:08:35;;;;;;;18.40;4.85;;;25.50;99.90;;;;;;4994970;28;20038;-52
2023/08/17 06:11:01;;;;;;;9.90;4.13;;;25.50;99.90;;;;;;4994804;28;20034;-52
2023/08/17 06:13:27;;;;;;;19.33;4.57;;;25.40;99.90;;;;;;4994711;28;20382;-52
2023/08/17 06:15:53;;;;;;;13.18;4.28;;;25.40;99.90;;;;;;4994777;28;20030;-52
2023/08/17 06:18:20;;;;;;;16.50;4.13;;;25.40;99.90;;;;;;4994663;28;20463;-52
2023/08/17 06:20:47;;;;;;;14.50;5.00;;;25.40;99.90;;;;;;4994644;28;20042;-52
2023/08/17 06:23:13;;;;;;;16.65;5.18;;;25.40;99.90;;;;;;4994400;28;20030;-52
2023/08/17 06:25:39;;;;;;;10.88;4.30;;;25.40;99.90;;;;;;4994794;28;20031;-52
2023/08/17 06:28:06;;;;;;;15.32;5.22;;;25.40;99.90;;;;;;4994436;28;20026;-52
2023/08/17 06:30:32;;;;;;;16.50;4.83;;;25.40;99.90;;;;;;4994428;28;20380;-53
2023/08/17 06:32:58;;;;;;;16.67;4.10;;;25.50;99.90;;;;;;4992951;28;20121;-52
2023/08/17 06:35:24;;;;;;;11.05;3.97;;;25.50;99.90;;;;;;4994387;28;20026;-52
2023/08/17 06:37:51;;;;;;;13.40;4.57;;;25.50;99.90;;;;;;4994197;28;20512;-52
2023/08/17 06:40:17;;;;;;;14.77;4.25;;;25.60;99.90;;;;;;4993890;28;20030;-51
2023/08/17 06:42:42;;;;;;;10.43;4.63;;;25.60;99.90;;;;;;4994262;28;20525;-52
2023/08/17 06:45:08;;;;;;;15.43;4.72;;;25.60;99.90;;;;;;4994370;28;20426;-52
2023/08/17 06:47:34;;;;;;;11.27;4.57;;;25.60;99.90;;;;;;4994058;28;20049;-52
2023/08/17 06:50:00;;;;;;;17.02;5.70;;;25.70;99.90;;;;;;4993899;28;20053;-52
2023/08/17 06:52:26;;;;;;;13.75;4.10;;;25.70;99.90;;;;;;4993946;28;20061;-52
2023/08/17 06:54:51;;;;;;;12.75;4.40;;;25.70;99.90;;;;;;4993911;28;20022;-52
2023/08/17 06:57:18;;;;;;;10.65;3.50;;;25.70;99.90;;;;;;4993773;28;20503;-52
2023/08/17 06:59:45;;;;;;;11.05;3.60;;;25.80;99.90;;;;;;4993828;28;20098;-52
2023/08/17 07:02:11;;;;;;;9.57;3.47;;;25.80;99.90;;;;;;4993778;28;20126;-52
2023/08/17 07:04:37;;;;;;;21.15;4.38;;;25.80;99.90;;;;;;4993716;28;20602;-52
2023/08/17 07:07:03;;;;;;;10.68;4.50;;;25.80;99.90;;;;;;4993639;28;20038;-52
2023/08/17 07:09:29;;;;;;;8.43;3.72;;;25.80;99.90;;;;;;4993670;28;20092;-52
2023/08/17 07:11:55;;;;;;;7.95;4.00;;;25.80;99.90;;;;;;4993575;28;20161;-52
2023/08/17 07:14:20;;;;;;;10.15;3.88;;;25.90;99.90;;;;;;4993375;28;20026;-52
2023/08/17 07:16:46;;;;;;;8.45;4.03;;;25.90;99.90;;;;;;4993398;28;20023;-52
2023/08/17 07:19:13;;;;;;;12.48;3.67;;;25.90;99.90;;;;;;4993620;28;20032;-52
2023/08/17 07:21:39;;;;;;;12.15;3.33;;;25.90;99.90;;;;;;4993417;28;20117;-52
2023/08/17 07:24:15;;;;;;;8.73;3.90;;;26.00;99.90;;;;;;4993456;28;20523;-52
2023/08/17 07:26:41;;;;;;;9.25;3.67;;;25.90;99.90;;;;;;4993348;28;20030;-52
2023/08/17 07:29:07;;;;;;;8.05;3.60;;;26.00;99.90;;;;;;4993215;28;20027;-52
2023/08/17 07:31:33;;;;;;;12.80;3.42;;;26.00;99.90;;;;;;4993399;28;20033;-52
2023/08/17 07:34:00;;;;;;;10.23;3.35;;;26.00;99.90;;;;;;4993218;28;20100;-52
2023/08/17 07:36:26;;;;;;;5.93;3.20;;;26.00;99.90;;;;;;4993385;28;20026;-52
2023/08/17 07:38:51;;;;;;;10.27;2.70;;;26.10;99.90;;;;;;4993487;28;20037;-53
2023/08/17 07:41:17;;;;;;;9.48;2.88;;;26.10;99.90;;;;;;4993070;28;20038;-52
2023/08/17 07:43:43;;;;;;;7.35;2.88;;;26.10;99.90;;;;;;4993273;28;20026;-52
2023/08/17 07:46:09;;;;;;;10.43;3.17;;;26.20;99.90;;;;;;4993234;28;20038;-52
2023/08/17 07:48:34;;;;;;;10.98;4.13;;;26.20;99.90;;;;;;4991810;28;20475;-52
2023/08/17 07:51:00;;;;;;;12.30;3.10;;;26.20;99.90;;;;;;4992910;28;20026;-52
2023/08/17 07:53:26;;;;;;;11.32;3.95;;;26.30;99.90;;;;;;5007577;28;20041;-52
2023/08/17 07:55:52;;;;;;;12.85;2.85;;;26.30;99.90;;;;;;4992991;28;20042;-53
2023/08/17 07:58:17;;;;;;;12.00;3.47;;;26.30;99.90;;;;;;4992729;28;20023;-53
2023/08/17 08:00:43;;;;;;;7.35;2.63;;;26.40;99.90;;;;;;4992786;28;20050;-52
2023/08/17 08:03:09;;;;;;;11.10;3.42;;;26.40;99.90;;;;;;4992803;28;20027;-52
2023/08/17 08:05:35;;;;;;;10.48;2.60;;;26.50;99.90;;;;;;4992847;28;20026;-52
2023/08/17 08:08:00;;;;;;;13.32;4.10;;;26.50;99.90;;;;;;4992755;28;20030;-52
2023/08/17 08:10:28;;;;;;;12.02;3.90;;;26.60;99.90;;;;;;4992843;28;20022;-52
2023/08/17 08:12:53;;;;;;;11.48;5.10;;;26.60;99.90;;;;;;5007724;28;20025;-53
2023/08/17 08:15:19;;;;;;;13.95;3.53;;;26.70;99.90;;;;;;4992521;28;20038;-52
2023/08/17 08:17:45;;;;;;;5.93;3.13;;;26.70;99.90;;;;;;4991622;28;20026;-54
2023/08/17 08:20:11;;;;;;;6.10;2.42;;;26.80;99.90;;;;;;5007756;28;20189;-53
2023/08/17 08:22:36;;;;;;;6.32;3.13;;;26.80;99.90;;;;;;4992525;28;20034;-53
2023/08/17 08:25:02;;;;;;;12.32;2.60;;;26.80;99.90;;;;;;4992599;28;20070;-52
2023/08/17 08:27:28;;;;;;;12.15;3.95;;;26.90;99.90;;;;;;4991032;28;20050;-53
2023/08/17 08:29:54;;;;;;;12.48;3.30;;;26.90;99.90;;;;;;4992628;28;20066;-53
2023/08/17 08:32:20;;;;;;;8.82;3.63;;;27.00;99.90;;;;;;4991120;28;20034;-53
2023/08/17 08:34:45;;;;;;;13.00;3.13;;;27.00;99.90;;;;;;4992613;28;20534;-53
2023/08/17 08:37:11;;;;;;;10.25;3.92;;;27.10;99.90;;;;;;4992280;28;20022;-53
2023/08/17 08:39:51;;;;;;;13.55;4.63;;;27.10;99.90;;;;;;5007224;28;20023;-53
2023/08/17 08:42:18;;;;;;;10.40;4.30;;;27.20;99.90;;;;;;4992691;28;20035;-53
2023/08/17 08:44:44;;;;;;;12.63;5.65;;;27.20;99.90;;;;;;4992726;28;20045;-53
2023/08/17 08:47:11;;;;;;;13.05;4.63;;;27.30;99.90;;;;;;4992464;28;20042;-53
2023/08/17 08:49:40;;;;;;;11.23;5.55;;;27.40;99.90;;;;;;4992469;28;20022;-53
2023/08/17 08:52:13;;;;;;;11.02;3.72;;;27.50;99.90;;;;;;5007302;28;20033;-53
2023/08/17 08:54:40;;;;;;;12.85;5.85;;;27.50;99.90;;;;;;4992310;28;20029;-53
2023/08/17 08:57:12;;;;;;;10.48;4.05;;;27.50;99.90;;;;;;4992458;28;20046;-53
2023/08/17 08:59:44;;;;;;;15.93;5.82;;;27.50;99.90;;;;;;4992203;28;20034;-53
2023/08/17 09:02:14;;;;;;;11.98;3.30;;;27.60;99.90;;;;;;5006655;28;20070;-53
2023/08/17 09:04:40;;;;;;;13.27;2.85;;;27.60;99.90;;;;;;4993471;28;20023;-53
2023/08/17 09:07:07;;;;;;;11.55;4.10;;;27.60;99.90;;;;;;4995997;28;20026;-53
2023/08/17 09:09:35;;;;;;;11.82;6.18;;;27.70;99.90;;;;;;5010956;28;20133;-53
2023/08/17 09:12:01;;;;;;;8.50;3.25;;;27.70;99.90;;;;;;4995843;28;20081;-53
2023/08/17 09:14:26;;;;;;;6.53;2.90;;;27.70;99.90;;;;;;4995879;28;20107;-52
2023/08/17 09:16:52;;;;;;;7.85;3.88;;;27.80;99.90;;;;;;4995928;28;20038;-53
2023/08/17 09:19:20;;;;;;;15.82;4.45;;;27.90;99.90;;;;;;4996060;28;20053;-53
2023/08/17 09:21:45;;;;;;;17.50;3.17;;;27.90;99.90;;;;;;4995811;28;20030;-53
2023/08/17 09:24:12;;;;;;;11.80;8.30;;;28.00;99.90;;;;;;4995734;28;20122;-53
2023/08/17 09:26:38;;;;;;;8.80;3.38;;;28.00;99.90;;;;;;4995794;28;20053;-53
2023/08/17 09:29:20;;;;;;;12.48;3.00;;;28.00;99.90;;;;;;4995738;28;20062;-53
2023/08/17 09:31:46;;;;;;;12.20;4.35;;;28.10;99.90;;;;;;4995914;28;20177;-53
2023/08/17 09:34:15;;;;;;;10.07;3.63;;;28.10;99.90;;;;;;4994367;28;20581;-53
2023/08/17 09:36:41;;;;;;;14.25;2.72;;;28.20;99.90;;;;;;4995568;28;20085;-54
2023/08/17 09:39:08;;;;;;;27.40;4.03;;;28.20;99.90;;;;;;4995507;28;20026;-53
2023/08/17 09:41:41;;;;;;;12.32;3.35;;;28.20;99.90;;;;;;4995402;28;20040;-53
2023/08/17 09:44:09;;;;;;;15.57;6.32;;;28.20;99.90;;;;;;4995379;28;20065;-52
2023/08/17 09:46:35;;;;;;;8.48;3.22;;;28.30;99.90;;;;;;4995229;28;20054;-53
2023/08/17 09:49:08;;;;;;;11.65;3.28;;;28.30;99.90;;;;;;4995334;28;20037;-53
2023/08/17 09:51:34;;;;;;;13.57;6.85;;;28.30;99.90;;;;;;4993924;28;20440;-53
2023/08/17 09:53:59;;;;;;;13.50;7.60;;;28.40;99.90;;;;;;4993739;28;20022;-52
2023/08/17 09:56:28;;;;;;;12.10;4.90;;;28.40;99.90;;;;;;4994972;28;20043;-53
2023/08/17 09:58:53;;;;;;;13.48;3.08;;;28.50;99.90;;;;;;4994938;28;20414;-53
2023/08/17 10:01:21;;;;;;;6.85;2.85;;;28.50;99.90;;;;;;4994766;28;20126;-53
2023/08/17 10:03:50;;;;;;;11.80;3.50;;;28.50;99.90;;;;;;4994927;28;20022;-53
2023/08/17 10:06:20;;;;;;;10.32;2.70;;;28.50;99.90;;;;;;4994650;28;20026;-53
2023/08/17 10:08:49;;;;;;;11.05;2.60;;;28.60;99.90;;;;;;4994703;28;20022;-53
2023/08/17 10:11:19;;;;;;;7.07;2.95;;;28.60;99.90;;;;;;4993301;28;20041;-54
2023/08/17 10:14:06;;;;;;;14.10;5.45;;;28.70;99.90;;;;;;4994494;28;20041;-53
2023/08/17 10:16:45;;;;;;;9.00;3.15;;;28.70;99.90;;;;;;4993865;28;20037;-54
2023/08/17 10:19:23;;;;;;;10.82;2.60;;;28.80;99.90;;;;;;4994535;28;20483;-53
2023/08/17 10:21:59;;;;;;;7.78;2.28;;;28.90;99.90;;;;;;4994602;28;20065;-53
2023/08/17 10:24:26;;;;;;;16.20;6.03;;;29.00;99.90;;;;;;4994453;28;20479;-53
2023/08/17 10:26:53;;;;;;;5.47;2.63;;;29.00;99.90;;;;;;4994603;28;20470;-53
2023/08/17 10:29:20;;;;;;;7.63;2.55;;;29.00;99.90;;;;;;4994599;28;20382;-53
2023/08/17 10:31:46;;;;;;;9.18;2.75;;;29.10;99.90;;;;;;4994363;28;20069;-53
2023/08/17 10:34:13;;;;;;;10.43;3.20;;;29.10;99.90;;;;;;4992819;28;20378;-53
2023/08/17 10:36:40;;;;;;;11.00;4.38;;;29.10;99.90;;;;;;4994177;28;20121;-52
2023/08/17 10:39:29;;;;;;;6.87;3.07;;;29.20;99.90;;;;;;4994008;28;20510;-53
2023/08/17 10:41:56;;;;;;;8.80;2.67;;;29.20;99.90;;;;;;4994028;28;20038;-53
2023/08/17 10:44:43;;;;;;;11.07;2.38;;;29.30;99.90;;;;;;4994400;28;20015;-53
2023/08/17 10:47:26;;;;;;;6.88;2.20;;;29.30;99.90;;;;;;4994006;28;20557;-53
2023/08/17 10:49:58;;;;;;;11.63;2.42;;;29.40;99.90;;;;;;4994157;28;20027;-53
2023/08/17 10:52:35;;;;;;;9.07;2.13;;;29.40;99.90;;;;;;4994062;28;20033;-55
2023/08/17 10:55:06;;;;;;;5.97;2.67;;;29.30;99.90;;;;;;4993892;28;20098;-53
2023/08/17 10:57:37;;;;;;;5.55;2.35;;;29.40;99.90;;;;;;4993817;28;20046;-53
2023/08/17 11:00:16;;;;;;;8.65;2.55;;;29.40;99.90;;;;;;4993832;28;20027;-53
2023/08/17 11:03:06;;;;;;;9.80;2.65;;;29.40;99.90;;;;;;4993508;28;20450;-53
2023/08/17 11:05:43;;;;;;;7.50;2.25;;;29.40;99.90;;;;;;4993477;28;20072;-53
2023/08/17 11:08:11;;;;;;;6.25;2.75;;;29.40;99.90;;;;;;4993653;28;20030;-53
2023/08/17 11:10:38;;;;;;;8.52;3.13;;;29.40;99.90;;;;;;4993605;28;20027;-53
2023/08/17 11:13:04;;;;;;;6.57;3.10;;;29.40;99.90;;;;;;4993606;28;20069;-53
2023/08/17 11:15:43;;;;;;;8.27;4.35;;;29.50;99.90;;;;;;4993498;28;20471;-53
2023/08/17 11:18:10;;;;;;;16.95;3.25;;;29.50;99.90;;;;;;4993425;28;20037;-53
2023/08/17 11:20:37;;;;;;;9.80;2.50;;;29.60;99.90;;;;;;4993299;28;20076;-53
2023/08/17 11:23:04;;;;;;;8.13;2.63;;;29.60;99.90;;;;;;4992087;28;20145;-53
2023/08/17 11:25:34;;;;;;;7.60;2.58;;;29.70;99.90;;;;;;4992935;28;20092;-54
2023/08/17 11:28:00;;;;;;;9.15;2.40;;;29.70;99.90;;;;;;4992250;28;20030;-53
2023/08/17 11:30:27;;;;;;;10.07;2.35;;;29.70;99.90;;;;;;4993071;28;20064;-53
2023/08/17 11:32:54;;;;;;;7.18;1.98;;;29.70;99.90;;;;;;4993217;28;20435;-53
2023/08/17 11:35:21;;;;;;;8.60;2.33;;;29.70;99.90;;;;;;4992977;28;20046;-52
2023/08/17 11:37:48;;;;;;;8.05;2.70;;;29.70;99.90;;;;;;4992964;28;20023;-54
2023/08/17 11:40:15;;;;;;;6.47;2.15;;;29.80;99.90;;;;;;4993030;28;20060;-53
2023/08/17 11:42:41;;;;;;;7.07;2.43;;;29.80;99.90;;;;;;4992952;28;20096;-54
2023/08/17 11:45:10;;;;;;;7.13;2.40;;;29.80;99.90;;;;;;4992826;28;20031;-54
2023/08/17 11:47:40;;;;;;;9.93;3.10;;;29.80;99.90;;;;;;4992920;28;20034;-54
2023/08/17 11:50:08;;;;;;;7.95;3.13;;;29.80;99.90;;;;;;5007898;28;20030;-52
2023/08/17 11:52:36;;;;;;;10.70;5.88;;;29.80;99.90;;;;;;4992768;28;20478;-53
2023/08/17 11:55:05;;;;;;;5.70;4.35;;;29.90;99.90;;;;;;4992862;28;20080;-53
2023/08/17 11:57:31;;;;;;;5.95;2.47;;;29.80;99.90;;;;;;4992837;28;20030;-51
2023/08/17 11:59:58;;;;;;;5.53;1.80;;;29.80;99.90;;;;;;4992678;28;20025;-51
2023/08/17 12:02:24;;;;;;;17.27;6.78;;;29.80;99.90;;;;;;4991221;28;20054;-51
2023/08/17 12:04:51;;;;;;;9.52;3.55;;;29.80;99.90;;;;;;4992609;28;20414;-53
2023/08/17 12:07:18;;;;;;;12.27;9.23;;;29.80;99.90;;;;;;4992636;28;20097;-52
2023/08/17 12:09:48;;;;;;;5.50;3.25;;;29.80;99.90;;;;;;5007512;28;20466;-52
2023/08/17 12:12:18;;;;;;;10.48;6.07;;;29.80;99.90;;;;;;4991354;28;20387;-52
2023/08/17 12:14:44;;;;;;;8.20;5.30;;;29.80;99.90;;;;;;4992355;28;20028;-53
2023/08/17 12:17:19;;;;;;;6.88;3.13;;;29.70;99.90;;;;;;4992459;28;20109;-52
2023/08/17 12:19:49;;;;;;;11.27;4.57;;;29.80;99.90;;;;;;4992417;28;20049;-52
2023/08/17 12:22:17;;;;;;;8.95;2.83;;;29.80;99.90;;;;;;5007407;28;20026;-53
2023/08/17 12:24:43;;;;;;;;;;;29.80;99.90;;;;;;4992825;28;20027;-52
2023/08/17 12:27:09;;;;;;;9.32;5.30;;;29.90;99.90;;;;;;4992338;28;19945;-53
2023/08/17 12:29:48;;;;;;;6.70;3.17;;;29.90;99.90;;;;;;4990928;28;20058;-53
2023/08/17 12:32:19;;;;;;;5.60;2.85;;;30.00;99.90;;;;;;4992443;28;20030;-52
2023/08/17 12:34:45;;;;;;;14.32;5.53;;;30.00;99.90;;;;;;4992254;28;20018;-52
2023/08/17 12:37:12;;;;;;;25.60;10.82;;;30.00;99.90;;;;;;4992321;28;20065;-52
2023/08/17 12:39:38;;;;;;;7.60;3.17;;;30.00;99.90;;;;;;4995143;28;20022;-52
2023/08/17 12:42:05;;;;;;;10.30;4.03;;;30.00;99.90;;;;;;4994872;28;20081;-52
2023/08/17 12:44:31;;;;;;;5.28;2.85;;;30.10;99.90;;;;;;5011409;28;20359;-52